This is the latest recevied weather packets stored in our database for station/object N4OGP-WX. If no packets are shown the sender has not sent any weather packets the latest 10 day(s).
| Time | Temp. | Humidity | Pressure | Rain* | Wind** | Luminosity | Snow |
|---|---|---|---|---|---|---|---|
| 1777590680 | 26.11° C | 70% | 1008.5 hPa | 0 mm | - | - | - |
| 1777590590 | 26.11° C | 70% | 1008.5 hPa | 0 mm | - | - | - |
| 1777590530 | 23.89° C | 42% | 1020.4 hPa | 0 mm | - | - | - |
| 1777590470 | 26.11° C | 70% | 1008.5 hPa | 0 mm | - | - | - |
| 1777590380 | 23.89° C | 42% | 1020.4 hPa | 0 mm | - | - | - |
| 1777590320 | 26.11° C | 69% | 1008.5 hPa | 0 mm | - | - | - |
| 1777590230 | 26.11° C | 69% | 1008.4 hPa | 0 mm | - | - | - |
| 1777590170 | 23.89° C | 42% | 1020.4 hPa | 0 mm | - | - | - |
| 1777590080 | 26.11° C | 69% | 1008.4 hPa | 0 mm | - | - | - |
| 1777590020 | 23.89° C | 42% | 1020.4 hPa | 0 mm | - | - | - |
| 1777589930 | 23.89° C | 42% | 1020.4 hPa | 0 mm | - | - | - |
| 1777589870 | 26.11° C | 69% | 1008.4 hPa | 0 mm | - | - | - |
| 1777589810 | 23.89° C | 42% | 1020.4 hPa | 0 mm | - | - | - |
| 1777589750 | 26.11° C | 70% | 1008.4 hPa | 0 mm | - | - | - |
| 1777589660 | 23.89° C | 42% | 1020.4 hPa | 0 mm | - | - | - |
| 1777589600 | 26.11° C | 70% | 1008.4 hPa | 0 mm | - | - | - |
| 1777589510 | 23.89° C | 42% | 1020.4 hPa | 0 mm | - | - | - |
| 1777589450 | 23.89° C | 42% | 1020.4 hPa | 0 mm | - | - | - |
| 1777589390 | 26.11° C | 69% | 1008.3 hPa | 0 mm | - | - | - |
| 1777589330 | 26.11° C | 69% | 1008.2 hPa | 0 mm | - | - | - |
| 1777589270 | 26.67° C | 69% | 1008.2 hPa | 0 mm | - | - | - |
| 1777589210 | 23.89° C | 42% | 1020.4 hPa | 0 mm | - | - | - |
| 1777589150 | 26.67° C | 69% | 1008.1 hPa | 0 mm | - | - | - |
| 1777589090 | 23.89° C | 42% | 1020.4 hPa | 0 mm | - | - | - |
| 1777589030 | 26.67° C | 69% | 1008.1 hPa | 0 mm | - | - | - |
* Rain latest hour (hover to see other rain measurements)
** Current wind speed in m/s (hover to see current wind gust speed)